createdAt,value
2023-03-17T00:01:13.045Z,3.83
2023-03-17T00:03:40.644Z,3.35
2023-03-17T00:06:10.775Z,4.35
2023-03-17T00:08:37.117Z,4.40
2023-03-17T00:11:03.620Z,3.17
2023-03-17T00:13:33.271Z,4.57
2023-03-17T00:16:01.596Z,4.45
2023-03-17T00:18:30.368Z,7.82
2023-03-17T00:20:57.698Z,4.88
2023-03-17T00:23:24.644Z,3.28
2023-03-17T00:25:53.443Z,7.57
2023-03-17T00:28:27.151Z,3.45
2023-03-17T00:30:58.687Z,3.03
2023-03-17T00:33:26.965Z,6.45
2023-03-17T00:35:53.798Z,3.13
2023-03-17T00:38:21.463Z,4.35
2023-03-17T00:40:47.907Z,4.15
2023-03-17T00:43:14.796Z,4.85
2023-03-17T00:45:41.432Z,5.93
2023-03-17T00:48:18.662Z,4.85
2023-03-17T00:50:45.497Z,3.83
2023-03-17T00:53:19.531Z,3.88
2023-03-17T00:55:46.673Z,3.33
2023-03-17T00:58:15.212Z,3.42
2023-03-17T01:00:42.036Z,3.38
2023-03-17T01:03:11.254Z,2.45
2023-03-17T01:05:38.644Z,3.60
2023-03-17T01:08:05.600Z,3.83
2023-03-17T01:10:32.657Z,4.95
2023-03-17T01:12:59.479Z,5.60
2023-03-17T01:15:28.799Z,4.10
2023-03-17T01:17:55.815Z,3.50
2023-03-17T01:20:24.244Z,3.00
2023-03-17T01:22:50.806Z,3.10
2023-03-17T01:25:17.946Z,3.83
2023-03-17T01:27:45.632Z,3.50
2023-03-17T01:30:21.611Z,3.67
2023-03-17T01:32:48.201Z,4.65
2023-03-17T01:35:14.775Z,2.72
2023-03-17T01:37:41.194Z,6.15
2023-03-17T01:40:09.616Z,2.83
2023-03-17T01:42:36.417Z,4.68
2023-03-17T01:45:07.829Z,4.07
2023-03-17T01:47:34.249Z,2.85
2023-03-17T01:50:05.194Z,3.30
2023-03-17T01:52:34.326Z,3.03
2023-03-17T01:55:03.798Z,2.92
2023-03-17T01:57:30.153Z,5.53
2023-03-17T01:59:58.715Z,2.63
2023-03-17T02:02:30.870Z,3.72
2023-03-17T02:04:58.081Z,3.42
2023-03-17T02:07:26.526Z,3.13
2023-03-17T02:09:53.611Z,5.07
2023-03-17T02:12:22.459Z,3.38
2023-03-17T02:14:48.847Z,4.22
2023-03-17T02:17:15.165Z,5.22
2023-03-17T02:19:42.527Z,3.67
2023-03-17T02:22:09.148Z,3.78
2023-03-17T02:24:53.132Z,1.85
2023-03-17T02:27:29.822Z,3.75
2023-03-17T02:29:56.198Z,2.97
2023-03-17T02:32:22.626Z,3.55
2023-03-17T02:34:49.575Z,2.25
2023-03-17T02:37:17.158Z,5.93
2023-03-17T02:39:43.633Z,3.03
2023-03-17T02:42:10.650Z,3.30
2023-03-17T02:44:37.061Z,3.20
2023-03-17T02:47:03.702Z,4.00
2023-03-17T02:49:30.958Z,3.03
2023-03-17T02:51:57.542Z,4.40
2023-03-17T02:54:23.885Z,2.22
2023-03-17T02:56:50.678Z,5.93
2023-03-17T02:59:17.053Z,3.53
2023-03-17T03:01:43.564Z,3.22
2023-03-17T03:04:09.973Z,2.40
2023-03-17T03:06:37.494Z,7.10
2023-03-17T03:09:03.938Z,4.13
2023-03-17T03:11:30.339Z,3.25
2023-03-17T03:13:57.012Z,3.05
2023-03-17T03:16:23.470Z,5.18
2023-03-17T03:18:49.800Z,3.20
2023-03-17T03:21:16.266Z,6.15
2023-03-17T03:23:43.272Z,3.20
2023-03-17T03:26:09.729Z,2.58
2023-03-17T03:28:36.378Z,4.70
2023-03-17T03:31:02.868Z,3.22
2023-03-17T03:33:29.251Z,3.83
2023-03-17T03:35:55.620Z,3.20
2023-03-17T03:38:22.077Z,3.13
2023-03-17T03:40:48.521Z,2.88
2023-03-17T03:43:22.866Z,4.00
2023-03-17T03:45:49.950Z,2.28
2023-03-17T03:48:16.878Z,3.00
2023-03-17T03:50:43.210Z,3.85
2023-03-17T03:53:09.930Z,3.80
2023-03-17T03:55:36.540Z,2.72
2023-03-17T03:58:02.929Z,3.50
2023-03-17T04:00:29.586Z,6.03
2023-03-17T04:02:56.205Z,4.03
2023-03-17T04:05:23.074Z,3.78
2023-03-17T04:07:49.431Z,2.45
2023-03-17T04:10:16.027Z,3.42
2023-03-17T04:12:42.624Z,2.72
2023-03-17T04:15:09.372Z,2.97
2023-03-17T04:17:35.908Z,3.38
2023-03-17T04:20:02.777Z,3.42
2023-03-17T04:22:29.093Z,3.58
2023-03-17T04:24:55.681Z,3.35
2023-03-17T04:27:22.078Z,3.42
2023-03-17T04:29:49.034Z,2.67
2023-03-17T04:32:15.397Z,4.30
2023-03-17T04:34:42.494Z,4.00
2023-03-17T04:37:09.636Z,6.63
2023-03-17T04:39:36.889Z,3.65
2023-03-17T04:42:03.785Z,5.22
2023-03-17T04:44:30.087Z,3.00
2023-03-17T04:46:56.457Z,3.80
2023-03-17T04:49:22.825Z,5.95
2023-03-17T04:51:49.221Z,3.50
2023-03-17T04:54:16.542Z,3.22
2023-03-17T04:56:43.130Z,8.20
2023-03-17T04:59:09.775Z,2.90
2023-03-17T05:01:39.070Z,3.30
2023-03-17T05:04:06.742Z,3.75
2023-03-17T05:06:33.074Z,4.43
2023-03-17T05:08:59.410Z,4.53
2023-03-17T05:11:25.780Z,3.10
2023-03-17T05:13:52.510Z,3.53
2023-03-17T05:16:18.935Z,4.22
2023-03-17T05:18:45.353Z,3.88
2023-03-17T05:21:11.694Z,3.38
2023-03-17T05:23:38.357Z,2.72
2023-03-17T05:26:05.286Z,3.75
2023-03-17T05:28:32.447Z,5.20
2023-03-17T05:30:58.839Z,3.38
2023-03-17T05:33:25.388Z,2.70
2023-03-17T05:35:52.228Z,2.72
2023-03-17T05:38:18.800Z,3.80
2023-03-17T05:40:45.673Z,4.88
2023-03-17T05:43:12.110Z,4.40
2023-03-17T05:45:39.124Z,3.53
2023-03-17T05:48:05.513Z,4.88
2023-03-17T05:50:32.528Z,3.17
2023-03-17T05:52:59.132Z,7.05
2023-03-17T05:55:25.706Z,5.07
2023-03-17T05:57:52.101Z,4.07
2023-03-17T06:00:18.878Z,3.00
2023-03-17T06:02:45.277Z,3.85
2023-03-17T06:05:11.725Z,5.32
2023-03-17T06:07:50.871Z,4.28
2023-03-17T06:10:19.816Z,3.85
2023-03-17T06:12:46.154Z,2.80
2023-03-17T06:15:12.501Z,2.80
2023-03-17T06:17:38.999Z,6.80
2023-03-17T06:20:05.636Z,4.38
2023-03-17T06:22:32.757Z,6.05
2023-03-17T06:24:59.409Z,6.72
2023-03-17T06:27:25.877Z,3.05
2023-03-17T06:29:52.447Z,4.13
2023-03-17T06:32:20.844Z,4.70
2023-03-17T06:34:48.254Z,4.65
2023-03-17T06:37:15.463Z,3.55
2023-03-17T06:39:42.282Z,5.53
2023-03-17T06:42:08.761Z,7.68
2023-03-17T06:44:36.268Z,7.90
2023-03-17T06:47:02.705Z,11.40
2023-03-17T06:49:29.173Z,10.07
2023-03-17T06:51:55.786Z,7.22
2023-03-17T06:54:24.576Z,7.20
2023-03-17T06:56:53.749Z,4.95
2023-03-17T06:59:21.750Z,7.50
2023-03-17T07:01:49.352Z,7.03
2023-03-17T07:04:16.378Z,3.90
2023-03-17T07:06:43.016Z,3.63
2023-03-17T07:09:10.054Z,4.15
2023-03-17T07:11:36.639Z,11.07
2023-03-17T07:14:03.094Z,8.57
2023-03-17T07:16:29.807Z,4.72
2023-03-17T07:18:56.444Z,5.75
2023-03-17T07:21:22.852Z,3.85
2023-03-17T07:23:49.190Z,7.85
2023-03-17T07:26:15.556Z,5.60
2023-03-17T07:28:44.162Z,7.40
2023-03-17T07:31:14.150Z,6.38
2023-03-17T07:33:41.280Z,7.38
2023-03-17T07:36:09.031Z,3.53
2023-03-17T07:38:36.161Z,3.60
2023-03-17T07:41:03.640Z,2.50
2023-03-17T07:43:30.587Z,4.35
2023-03-17T07:45:57.149Z,2.65
2023-03-17T07:48:24.161Z,3.67
2023-03-17T07:50:53.640Z,4.95
2023-03-17T07:53:19.986Z,6.07
2023-03-17T07:55:46.336Z,5.57
2023-03-17T07:58:15.590Z,5.57
2023-03-17T08:00:42.287Z,4.78
2023-03-17T08:03:10.879Z,6.65
2023-03-17T08:05:38.031Z,7.68
2023-03-17T08:08:06.576Z,7.18
2023-03-17T08:10:33.351Z,5.13
2023-03-17T08:13:00.129Z,6.28
2023-03-17T08:15:26.655Z,5.85
2023-03-17T08:17:53.756Z,4.70
2023-03-17T08:20:20.201Z,3.30
2023-03-17T08:22:46.525Z,5.95
2023-03-17T08:25:12.877Z,12.20
2023-03-17T08:27:39.438Z,7.10
2023-03-17T08:30:06.149Z,8.43
2023-03-17T08:32:32.508Z,9.18
2023-03-17T08:34:58.847Z,8.15
2023-03-17T08:37:25.243Z,6.38
2023-03-17T08:39:51.566Z,6.68
2023-03-17T08:42:18.010Z,6.63
2023-03-17T08:44:44.363Z,6.38
2023-03-17T08:47:10.966Z,6.80
2023-03-17T08:49:37.453Z,11.65
2023-03-17T08:52:04.266Z,7.47
2023-03-17T08:54:30.751Z,5.80
2023-03-17T08:56:57.888Z,7.10
2023-03-17T08:59:24.199Z,11.65
2023-03-17T09:01:50.629Z,5.93
2023-03-17T09:04:17.162Z,7.72
2023-03-17T09:07:01.363Z,6.32
2023-03-17T09:09:30.785Z,4.78
2023-03-17T09:11:57.134Z,7.57
2023-03-17T09:14:24.837Z,7.65
2023-03-17T09:16:51.386Z,5.47
2023-03-17T09:19:18.074Z,7.85
2023-03-17T09:21:44.585Z,9.73
2023-03-17T09:24:11.118Z,6.95
2023-03-17T09:26:37.585Z,6.45
2023-03-17T09:29:04.819Z,10.20
2023-03-17T09:31:31.848Z,6.45
2023-03-17T09:33:58.900Z,8.10
2023-03-17T09:36:25.248Z,8.43
2023-03-17T09:38:51.816Z,7.50
2023-03-17T09:41:23.423Z,6.70
2023-03-17T09:43:52.634Z,7.80
2023-03-17T09:46:22.184Z,6.20
2023-03-17T09:48:48.663Z,10.20
2023-03-17T09:51:18.452Z,10.40
2023-03-17T09:54:02.369Z,7.50
2023-03-17T09:56:30.364Z,6.18
2023-03-17T09:59:08.614Z,10.80
2023-03-17T10:01:35.327Z,10.27
2023-03-17T10:04:02.650Z,7.88
2023-03-17T10:06:35.050Z,7.40
2023-03-17T10:09:07.841Z,10.43
2023-03-17T10:11:40.479Z,9.50
2023-03-17T10:14:27.177Z,6.47
2023-03-17T10:16:56.543Z,6.07
2023-03-17T10:19:28.480Z,3.80
2023-03-17T10:22:00.704Z,6.68
2023-03-17T10:24:29.002Z,7.72
2023-03-17T10:26:57.816Z,8.35
2023-03-17T10:29:24.199Z,10.32
2023-03-17T10:31:51.618Z,9.50
2023-03-17T10:34:20.111Z,5.65
2023-03-17T10:36:47.774Z,9.13
2023-03-17T10:39:17.502Z,5.75
2023-03-17T10:41:52.631Z,10.98
2023-03-17T10:44:28.087Z,9.57
2023-03-17T10:46:55.468Z,5.13
2023-03-17T10:49:24.438Z,11.90
2023-03-17T10:51:52.924Z,7.53
2023-03-17T10:54:20.005Z,5.57
2023-03-17T10:56:50.365Z,10.93
2023-03-17T10:59:28.546Z,5.05
2023-03-17T11:02:01.421Z,5.20
2023-03-17T11:04:39.018Z,10.35
2023-03-17T11:07:07.845Z,11.73
2023-03-17T11:09:35.071Z,6.18
2023-03-17T11:12:01.667Z,6.35
2023-03-17T11:14:28.344Z,12.40
2023-03-17T11:16:54.672Z,10.57
2023-03-17T11:19:24.311Z,6.95
2023-03-17T11:22:00.105Z,7.28
2023-03-17T11:27:10.985Z,6.68
2023-03-17T11:29:37.292Z,8.00
2023-03-17T11:32:03.734Z,8.52
2023-03-17T11:34:30.577Z,7.53
2023-03-17T11:37:19.133Z,14.68
2023-03-17T11:40:04.254Z,7.60
2023-03-17T11:43:09.348Z,9.40
2023-03-17T11:45:43.917Z,11.10
2023-03-17T11:48:24.207Z,11.70
2023-03-17T11:50:55.413Z,8.57
2023-03-17T11:53:40.655Z,8.82
2023-03-17T11:56:10.961Z,4.95
2023-03-17T11:58:44.285Z,6.13
2023-03-17T12:01:22.964Z,6.25
2023-03-17T12:03:52.813Z,5.75
2023-03-17T12:06:25.673Z,10.68
2023-03-17T12:08:56.223Z,4.78
2023-03-17T12:11:24.863Z,8.45
2023-03-17T12:13:51.605Z,7.25
2023-03-17T12:16:33.436Z,5.13
2023-03-17T12:19:08.689Z,9.15
2023-03-17T12:21:55.604Z,7.13
2023-03-17T12:24:43.781Z,7.43
2023-03-17T12:27:21.950Z,7.40
2023-03-17T12:29:51.655Z,5.80
2023-03-17T12:32:23.857Z,9.18
2023-03-17T12:34:57.587Z,10.88
2023-03-17T12:37:25.731Z,7.03
2023-03-17T12:39:55.706Z,10.35
2023-03-17T12:42:37.827Z,10.30
2023-03-17T12:45:18.679Z,7.25
2023-03-17T12:47:45.009Z,10.75
2023-03-17T12:50:29.954Z,7.30
2023-03-17T12:53:05.288Z,10.60
2023-03-17T12:55:33.870Z,8.23
2023-03-17T12:58:02.124Z,7.38
2023-03-17T13:00:30.049Z,8.30
2023-03-17T13:03:08.497Z,9.02
2023-03-17T13:05:37.354Z,9.27
2023-03-17T13:08:06.652Z,8.88
2023-03-17T13:10:37.179Z,6.65
2023-03-17T13:13:05.957Z,11.65
2023-03-17T13:15:36.085Z,10.43
2023-03-17T13:18:15.349Z,9.00
2023-03-17T13:20:41.674Z,8.85
2023-03-17T13:23:11.160Z,5.90
2023-03-17T13:25:41.755Z,6.55
2023-03-17T13:28:15.154Z,6.60
2023-03-17T13:30:43.450Z,10.32
2023-03-17T13:33:10.032Z,6.35
2023-03-17T13:35:41.768Z,9.80
2023-03-17T13:38:17.233Z,11.77
2023-03-17T13:40:49.641Z,14.20
2023-03-17T13:43:16.014Z,7.78
2023-03-17T13:45:44.087Z,10.10
2023-03-17T13:48:29.297Z,7.07
2023-03-17T13:51:18.447Z,8.10
2023-03-17T13:53:44.850Z,8.50
2023-03-17T13:56:12.367Z,7.82
2023-03-17T13:59:09.142Z,11.25
2023-03-17T14:04:05.453Z,6.35
2023-03-17T14:06:36.558Z,17.98
2023-03-17T14:09:08.274Z,10.27
2023-03-17T14:11:36.633Z,7.93
2023-03-17T14:14:38.760Z,8.48
2023-03-17T14:17:24.044Z,8.05
2023-03-17T14:20:19.457Z,9.48
2023-03-17T14:22:46.915Z,8.63
2023-03-17T14:25:17.479Z,8.82
2023-03-17T14:27:44.232Z,5.93
2023-03-17T14:30:24.375Z,8.85
2023-03-17T14:32:59.954Z,5.50
2023-03-17T14:35:29.733Z,9.70
2023-03-17T14:37:56.299Z,8.98
2023-03-17T14:40:24.774Z,7.07
2023-03-17T14:42:51.518Z,12.85
2023-03-17T14:45:41.036Z,7.95
2023-03-17T14:48:11.466Z,9.57
2023-03-17T14:50:37.850Z,8.10
2023-03-17T14:53:04.427Z,8.85
2023-03-17T14:55:37.943Z,6.35
2023-03-17T14:58:17.745Z,7.68
2023-03-17T15:00:45.496Z,11.65
2023-03-17T15:03:19.980Z,9.35
2023-03-17T15:05:47.060Z,9.40
2023-03-17T15:08:30.731Z,6.47
2023-03-17T15:10:58.122Z,9.63
2023-03-17T15:13:25.614Z,8.57
2023-03-17T15:15:51.977Z,8.07
2023-03-17T15:18:21.184Z,7.85
2023-03-17T15:20:47.615Z,9.63
2023-03-17T15:23:19.201Z,7.25
2023-03-17T15:25:47.111Z,16.67
2023-03-17T15:28:14.805Z,11.07
2023-03-17T15:30:47.470Z,11.98
2023-03-17T15:33:19.894Z,5.88
2023-03-17T15:35:46.668Z,5.97
2023-03-17T15:38:13.199Z,9.45
2023-03-17T15:40:39.559Z,6.85
2023-03-17T15:43:06.335Z,13.52
2023-03-17T15:45:32.846Z,7.80
2023-03-17T15:47:59.234Z,9.15
2023-03-17T15:50:28.776Z,11.32
2023-03-17T15:52:56.248Z,7.85
2023-03-17T15:55:23.904Z,10.32
2023-03-17T15:57:55.145Z,10.27
2023-03-17T16:00:22.912Z,9.73
2023-03-17T16:02:51.878Z,9.45
2023-03-17T16:05:20.123Z,17.50
2023-03-17T16:07:47.026Z,17.20
2023-03-17T16:10:18.534Z,10.70
2023-03-17T16:12:45.405Z,8.18
2023-03-17T16:15:22.876Z,14.82
2023-03-17T16:17:51.047Z,14.65
2023-03-17T16:20:24.857Z,9.23
2023-03-17T16:22:52.335Z,6.95
2023-03-17T16:25:24.908Z,14.23
2023-03-17T16:27:51.891Z,9.07
2023-03-17T16:30:23.503Z,7.93
2023-03-17T16:32:50.437Z,7.50
2023-03-17T16:35:21.418Z,9.52
2023-03-17T16:37:48.584Z,7.78
2023-03-17T16:40:21.152Z,9.88
2023-03-17T16:42:48.079Z,10.73
2023-03-17T16:45:22.667Z,15.77
2023-03-17T16:47:49.721Z,7.85
2023-03-17T16:50:20.249Z,13.18
2023-03-17T16:52:46.812Z,9.50
2023-03-17T16:55:14.333Z,10.38
2023-03-17T16:57:41.862Z,8.68
2023-03-17T17:00:08.951Z,8.10
2023-03-17T17:02:35.436Z,7.30
2023-03-17T17:05:04.826Z,13.23
2023-03-17T17:07:32.122Z,10.63
2023-03-17T17:09:58.427Z,13.68
2023-03-17T17:12:24.821Z,9.48
2023-03-17T17:14:51.173Z,11.68
2023-03-17T17:17:19.488Z,9.80
2023-03-17T17:19:46.114Z,10.90
2023-03-17T17:22:12.541Z,9.25
2023-03-17T17:24:38.974Z,11.13
2023-03-17T17:27:05.367Z,12.20
2023-03-17T17:29:32.521Z,7.50
2023-03-17T17:31:59.102Z,7.95
2023-03-17T17:34:25.788Z,7.72
2023-03-17T17:36:52.870Z,12.00
2023-03-17T17:39:19.242Z,13.93
2023-03-17T17:41:45.681Z,8.13
2023-03-17T17:44:12.058Z,8.00
2023-03-17T17:46:38.543Z,7.32
2023-03-17T17:49:05.115Z,10.95
2023-03-17T17:51:32.741Z,8.68
2023-03-17T17:53:59.238Z,10.75
2023-03-17T17:56:26.068Z,8.05
2023-03-17T17:58:52.432Z,10.77
2023-03-17T18:01:22.379Z,15.55
2023-03-17T18:03:48.796Z,12.38
2023-03-17T18:06:17.135Z,11.02
2023-03-17T18:08:44.291Z,13.32
2023-03-17T18:11:10.848Z,10.65
2023-03-17T18:13:38.962Z,16.10
2023-03-17T18:16:09.653Z,9.57
2023-03-17T18:18:37.978Z,12.35
2023-03-17T18:21:04.347Z,12.38
2023-03-17T18:23:30.706Z,9.68
2023-03-17T18:26:00.637Z,13.00
2023-03-17T18:28:26.962Z,13.38
2023-03-17T18:30:53.523Z,8.77
2023-03-17T18:33:20.000Z,12.10
2023-03-17T18:35:47.885Z,12.48
2023-03-17T18:38:14.311Z,14.98
2023-03-17T18:40:41.307Z,12.02
2023-03-17T18:43:07.615Z,17.33
2023-03-17T18:45:34.010Z,15.05
2023-03-17T18:48:00.302Z,14.85
2023-03-17T18:50:27.279Z,11.70
2023-03-17T18:52:53.842Z,14.77
2023-03-17T18:55:20.624Z,15.85
2023-03-17T18:57:47.045Z,10.43
2023-03-17T19:00:14.852Z,11.10
2023-03-17T19:02:41.234Z,14.43
2023-03-17T19:05:07.799Z,14.38
2023-03-17T19:07:39.044Z,11.80
2023-03-17T19:10:07.183Z,12.73
2023-03-17T19:12:33.589Z,14.88
2023-03-17T19:15:12.648Z,11.35
2023-03-17T19:17:39.220Z,10.50
2023-03-17T19:20:06.126Z,9.80
2023-03-17T19:22:33.920Z,16.55
2023-03-17T19:25:00.610Z,7.82
2023-03-17T19:27:27.274Z,11.27
2023-03-17T19:29:53.658Z,15.30
2023-03-17T19:32:20.054Z,12.82
2023-03-17T19:34:47.771Z,12.23
2023-03-17T19:37:14.203Z,9.30
2023-03-17T19:39:41.015Z,14.90
2023-03-17T19:42:07.474Z,9.70
2023-03-17T19:44:33.841Z,9.82
2023-03-17T19:47:04.989Z,9.25
2023-03-17T19:49:31.541Z,9.90
2023-03-17T19:51:58.125Z,10.95
2023-03-17T19:54:24.574Z,9.35
2023-03-17T19:56:51.818Z,11.57
2023-03-17T19:59:19.710Z,9.25
2023-03-17T20:01:46.378Z,10.98
2023-03-17T20:04:17.528Z,8.93
2023-03-17T20:06:43.989Z,10.45
2023-03-17T20:09:10.372Z,12.77
2023-03-17T20:11:36.751Z,12.77
2023-03-17T20:14:03.689Z,9.02
2023-03-17T20:16:33.463Z,9.10
2023-03-17T20:19:00.478Z,11.15
2023-03-17T20:21:26.932Z,11.02
2023-03-17T20:23:53.325Z,11.52
2023-03-17T20:26:19.998Z,12.98
2023-03-17T20:28:46.929Z,9.63
2023-03-17T20:31:13.734Z,11.05
2023-03-17T20:33:40.214Z,9.95
2023-03-17T20:36:06.881Z,10.60
2023-03-17T20:38:38.985Z,13.13
2023-03-17T20:41:10.693Z,15.25
2023-03-17T20:43:38.312Z,12.65
2023-03-17T20:46:11.154Z,11.68
2023-03-17T20:48:37.841Z,9.73
2023-03-17T20:51:06.132Z,12.35
2023-03-17T20:53:33.168Z,8.85
2023-03-17T20:56:00.275Z,11.02
2023-03-17T20:58:27.832Z,9.13
2023-03-17T21:00:54.558Z,9.75
2023-03-17T21:03:21.042Z,10.65
2023-03-17T21:05:47.636Z,12.32
2023-03-17T21:08:14.158Z,9.40
2023-03-17T21:10:40.645Z,12.65
2023-03-17T21:13:07.344Z,11.27
2023-03-17T21:15:33.790Z,10.68
2023-03-17T21:18:00.138Z,12.35
2023-03-17T21:20:27.257Z,12.63
2023-03-17T21:22:53.682Z,16.10
2023-03-17T21:25:20.286Z,15.75
2023-03-17T21:27:46.711Z,9.57
2023-03-17T21:30:14.390Z,10.38
2023-03-17T21:32:41.722Z,13.45
2023-03-17T21:35:08.818Z,16.38
2023-03-17T21:37:35.297Z,10.85
2023-03-17T21:40:01.780Z,7.70
2023-03-17T21:42:28.366Z,12.38
2023-03-17T21:44:55.187Z,13.27
2023-03-17T21:47:21.704Z,11.18
2023-03-17T21:49:48.213Z,9.35
2023-03-17T21:52:15.136Z,9.93
2023-03-17T21:54:41.869Z,13.85
2023-03-17T21:57:08.336Z,11.88
2023-03-17T21:59:35.783Z,12.73
2023-03-17T22:02:02.978Z,14.75
2023-03-17T22:04:29.928Z,11.07
2023-03-17T22:06:56.406Z,14.23
2023-03-17T22:09:23.009Z,11.38
2023-03-17T22:11:49.862Z,13.98
2023-03-17T22:14:20.190Z,16.55
2023-03-17T22:16:47.232Z,13.88
2023-03-17T22:19:13.860Z,11.77
2023-03-17T22:21:40.576Z,12.23
2023-03-17T22:24:07.282Z,11.20
2023-03-17T22:26:33.732Z,10.95
2023-03-17T22:29:00.145Z,10.88
2023-03-17T22:31:27.820Z,11.93
2023-03-17T22:33:55.451Z,10.00
2023-03-17T22:36:22.483Z,13.20
2023-03-17T22:38:48.983Z,12.88
2023-03-17T22:41:20.499Z,16.38
2023-03-17T22:43:47.167Z,10.82
2023-03-17T22:46:13.998Z,14.77
2023-03-17T22:48:40.855Z,13.60
2023-03-17T22:51:08.432Z,11.75
2023-03-17T22:53:35.479Z,12.27
2023-03-17T22:56:02.259Z,12.20
2023-03-17T22:58:29.028Z,12.98
2023-03-17T23:00:56.314Z,16.23
2023-03-17T23:03:23.492Z,12.48
2023-03-17T23:05:51.389Z,10.45
2023-03-17T23:08:18.964Z,10.93
2023-03-17T23:10:45.768Z,13.95
2023-03-17T23:13:12.680Z,14.77
2023-03-17T23:15:39.194Z,11.50
2023-03-17T23:18:06.117Z,12.45
2023-03-17T23:20:33.272Z,15.13
2023-03-17T23:22:59.954Z,12.63
2023-03-17T23:25:26.637Z,13.85
2023-03-17T23:27:52.949Z,13.73
2023-03-17T23:30:19.361Z,12.40
2023-03-17T23:32:45.785Z,14.50
2023-03-17T23:35:13.621Z,11.88
2023-03-17T23:37:41.068Z,15.43
2023-03-17T23:40:09.395Z,15.90
2023-03-17T23:42:36.363Z,15.10
2023-03-17T23:45:03.154Z,16.30
2023-03-17T23:47:29.729Z,16.85
2023-03-17T23:49:56.194Z,13.63
2023-03-17T23:52:22.692Z,16.08
2023-03-17T23:54:49.482Z,14.95
2023-03-17T23:57:16.052Z,15.88
2023-03-17T23:59:43.290Z,13.85
